Time;durP1;ratioP1;P1;durP2;ratioP2;P2;SDS_P1;SDS_P2;PMS_P1;PMS_P2;Temp;Humidity;BMP_temperature;BMP_pressure;BME280_temperature;BME280_humidity;BME280_pressure;Samples;Min_cycle;Max_cycle;Signal;HPM_P1;HPM_P2
2022/10/31 16:27:03;;;;;;;;;;;6.50;66.40;;;;;;5065710;27;19916;-96
2022/10/31 16:29:41;;;;;;;;;;;6.50;67.80;;;;;;5068378;28;19913;-96
2022/10/31 16:32:25;;;;;;;;;;;6.50;68.90;;;;;;5062946;28;20023;-93
2022/10/31 16:35:09;;;;;;;;;;;6.60;69.90;;;;;;5077948;28;19917;-95
2022/10/31 16:37:41;;;;;;;;;;;6.60;70.40;;;;;;5076470;28;19913;-96
2022/10/31 16:40:08;;;;;;;;;;;6.70;71.00;;;;;;5062638;28;19943;-92
2022/10/31 16:42:33;;;;;;;;;;;6.80;71.30;;;;;;5076012;28;19924;-94
2022/10/31 16:44:59;;;;;;;;;;;6.80;71.60;;;;;;5068928;28;20004;-94
2022/10/31 16:47:24;;;;;;;;;;;6.90;71.90;;;;;;5069543;28;19935;-94
2022/10/31 16:49:50;;;;;;;;;;;6.90;71.90;;;;;;5065066;28;19920;-90
2022/10/31 16:52:16;;;;;;;;;;;6.90;72.10;;;;;;5065276;28;19913;-90
2022/10/31 16:54:42;;;;;;;;;;;7.00;72.30;;;;;;5070323;28;19919;-93
2022/10/31 16:57:12;;;;;;;;;;;7.00;72.30;;;;;;5067225;28;19916;-96
2022/10/31 16:59:38;;;;;;;;;;;7.00;72.50;;;;;;5074396;28;20306;-95
2022/10/31 17:02:03;;;;;;;;;;;7.00;72.60;;;;;;5076986;28;20013;-93
2022/10/31 17:04:29;;;;;;;;;;;7.00;72.80;;;;;;5077217;28;19913;-94
2022/10/31 17:06:56;;;;;;;;;;;7.00;72.70;;;;;;5073241;28;20023;-95
2022/10/31 17:09:26;;;;;;;;;;;7.10;72.80;;;;;;5079480;28;19920;-96
2022/10/31 17:11:52;;;;;;;;;;;7.10;72.80;;;;;;5059549;28;19917;-95
2022/10/31 17:14:18;;;;;;;;;;;7.00;72.90;;;;;;5067781;28;19959;-96
2022/10/31 17:18:02;;;;;;;;;;;7.00;72.30;;;;;;5097454;27;19940;-95
2022/10/31 17:20:29;;;;;;;;;;;7.10;72.90;;;;;;5053709;28;20408;-92
2022/10/31 17:22:55;;;;;;;;;;;7.00;73.00;;;;;;5088940;28;19909;-96
2022/10/31 17:25:27;;;;;;;;;;;7.10;72.90;;;;;;5070035;28;19917;-95
2022/10/31 17:27:52;;;;;;;;;;;7.10;73.00;;;;;;5055412;28;19909;-96
2022/10/31 17:30:19;;;;;;;;;;;7.10;72.90;;;;;;5081327;28;20349;-92
2022/10/31 17:32:45;;;;;;;;;;;7.00;73.20;;;;;;5070406;28;19909;-94
2022/10/31 17:35:12;;;;;;;;;;;7.00;73.20;;;;;;5049991;28;20000;-93
2022/10/31 17:37:38;;;;;;;;;;;7.00;73.10;;;;;;5052384;28;19956;-94
2022/10/31 17:40:04;;;;;;;;;;;7.00;73.20;;;;;;5064605;28;20361;-94
2022/10/31 17:42:29;;;;;;;;;;;6.90;73.20;;;;;;5065062;28;19944;-92
2022/10/31 17:44:55;;;;;;;;;;;6.90;73.20;;;;;;5059133;28;20002;-95
2022/10/31 17:47:20;;;;;;;;;;;6.90;73.40;;;;;;5051284;28;19913;-93
2022/10/31 17:49:46;;;;;;;;;;;6.80;73.40;;;;;;5048042;28;20320;-91
2022/10/31 17:52:12;;;;;;;;;;;6.80;73.50;;;;;;5057884;28;19913;-88
2022/10/31 17:54:37;;;;;;;;;;;6.80;73.50;;;;;;5079841;28;19970;-89
2022/10/31 17:57:03;;;;;;;;;;;6.70;73.60;;;;;;5062448;28;19979;-92
2022/10/31 17:59:29;;;;;;;;;;;6.70;74.30;;;;;;5057693;28;19920;-92
2022/10/31 18:01:55;;;;;;;;;;;6.70;73.80;;;;;;5052818;28;19916;-90
2022/10/31 18:04:20;;;;;;;;;;;6.60;73.80;;;;;;5046856;28;19924;-91
2022/10/31 18:06:48;;;;;;;;;;;6.50;73.90;;;;;;5042653;28;19913;-91
2022/10/31 18:09:14;;;;;;;;;;;6.50;74.00;;;;;;5044564;28;20364;-90
2022/10/31 18:11:40;;;;;;;;;;;6.40;74.00;;;;;;5076414;28;19917;-91
2022/10/31 18:14:05;;;;;;;;;;;6.40;74.20;;;;;;5048892;28;19913;-88
2022/10/31 18:16:31;;;;;;;;;;;6.40;74.30;;;;;;5061899;28;19925;-91
2022/10/31 18:18:58;;;;;;;;;;;6.30;74.30;;;;;;5055499;28;19924;-91
2022/10/31 18:21:24;;;;;;;;;;;6.30;74.50;;;;;;5060401;28;19916;-91
2022/10/31 18:23:53;;;;;;;;;;;6.20;74.50;;;;;;5047477;28;19913;-91
2022/10/31 18:26:19;;;;;;;;;;;6.20;74.60;;;;;;5045782;28;19956;-92
2022/10/31 18:28:45;;;;;;;;;;;6.10;74.60;;;;;;5041417;28;20433;-90
2022/10/31 18:31:10;;;;;;;;;;;6.10;74.70;;;;;;5031905;28;20015;-90
2022/10/31 18:33:36;;;;;;;;;;;6.10;74.90;;;;;;5032655;28;19913;-91
2022/10/31 18:36:03;;;;;;;;;;;6.00;74.90;;;;;;5025978;28;20280;-91
2022/10/31 18:38:29;;;;;;;;;;;6.00;74.90;;;;;;5017334;28;19916;-92
2022/10/31 18:40:54;;;;;;;;;;;6.00;75.00;;;;;;5035285;28;19912;-91
2022/10/31 18:43:20;;;;;;;;;;;5.90;75.00;;;;;;5043264;28;20456;-91
2022/10/31 18:45:45;;;;;;;;;;;5.80;75.00;;;;;;5039075;28;19998;-92
2022/10/31 18:48:12;;;;;;;;;;;5.80;75.10;;;;;;5037800;28;19913;-90
2022/10/31 18:50:38;;;;;;;;;;;5.80;75.10;;;;;;5029352;28;19921;-89
2022/10/31 18:53:04;;;;;;;;;;;5.70;75.10;;;;;;5034023;28;19920;-91
2022/10/31 18:55:29;;;;;;;;;;;5.70;75.10;;;;;;5033426;28;19920;-91
2022/10/31 18:57:55;;;;;;;;;;;5.70;75.20;;;;;;5029615;28;19917;-90
2022/10/31 19:00:20;;;;;;;;;;;5.70;75.30;;;;;;5037366;28;19959;-92
2022/10/31 19:02:46;;;;;;;;;;;5.60;75.20;;;;;;5035160;28;19913;-93
2022/10/31 19:05:11;;;;;;;;;;;5.60;75.30;;;;;;5059612;28;19953;-91
2022/10/31 19:07:37;;;;;;;;;;;5.60;75.40;;;;;;5030625;28;19914;-92
2022/10/31 19:10:03;;;;;;;;;;;5.60;75.40;;;;;;5032706;28;19917;-92
2022/10/31 19:12:30;;;;;;;;;;;5.60;75.40;;;;;;5034624;28;19944;-94
2022/10/31 19:14:55;;;;;;;;;;;5.50;75.40;;;;;;5036022;28;19912;-94
2022/10/31 19:17:22;;;;;;;;;;;5.50;75.50;;;;;;5043845;28;20302;-93
2022/10/31 19:19:48;;;;;;;;;;;5.50;75.50;;;;;;5040539;28;20361;-94
2022/10/31 19:22:13;;;;;;;;;;;5.40;75.50;;;;;;5045366;28;19974;-93
2022/10/31 19:24:39;;;;;;;;;;;5.40;75.50;;;;;;5049660;28;19920;-95
2022/10/31 19:27:05;;;;;;;;;;;5.40;75.50;;;;;;5040124;28;20280;-94
2022/10/31 19:29:30;;;;;;;;;;;5.30;75.60;;;;;;5032067;28;19913;-95
2022/10/31 19:31:56;;;;;;;;;;;5.30;75.60;;;;;;5040496;28;20292;-94
